Cincinnati, Ohio
Traffic Map
Current Weather Conditions
Cincinnati, Ohio
Few Clouds
Few Clouds
79°
Feels Like: 81°
Wind Chill: 79° Ceiling: Unl
Heat Index: 81° Visibility: 10mi
Dew Point: 66° Wind: 10mph
Humidity: 64% Direction: 170° (S)
Pressure: 29.8in Gusts: 0mph
Raw Report DataKLUK 302253Z 17009KT 10SM FEW060 FEW120 26/19 A2980 RMK AO2 SLP089 T02610189
Traffic Incident Summary
Active as of:
Severity:
Category:
InformationThere was an issue retrieving the traffic information for this location. Please try a different location or try again shortly.
Advertisements
Track Severe Weather on mobile